Decoded Metar for UWKD (KAZAN in RUSSIA) (IATA:KZN) | Meteo·Mobile Aviation Weather
aviador You're here:

UWKD Decoded Metar

KAZAN in RUSSIA
Report Time2019-10-22 14:30:00
UTC Time2019-10-22 14:57:49
Flight Rules vfr VFR
Wind290° at 8 kt
W.Decomp.*RWY 29: 7.8 kt HW 1.7 kt LCW
Visibility9999 m
Phenomena:N/A
Clouds:Few 030 Hf
Expected CloudBase > 1,600 ft AGL from Temp-Dew spread
CeilingNone
Temp05°C (ISA -9)
Dew Point01°C (76% RH)
AAT0.3°C
QNH1020 hPa
Density Alt-843 ft
Elevation413 ft
Report Wrong Elevation
Raw Report
METAR UWKD 221430Z 29004MPS 9999 FEW030 05/01 Q1020 R29/70D NOSIG RMK
QFE753/1005=

Extra information for UWKD:More info

Metar Taf Metar & Taf Last 4 Metars F.Rules Stats Wind Profile Meteogram Temp Stats Airport Information Weather charts Add Link Nearby VenuesMetar ALERT Operation Metar Decoded Social comments